createdAt,value
2023-02-10T00:01:34.737Z,33.93
2023-02-10T00:04:01.770Z,32.70
2023-02-10T00:06:28.982Z,31.13
2023-02-10T00:08:59.796Z,31.67
2023-02-10T00:11:47.067Z,26.37
2023-02-10T00:14:18.599Z,30.47
2023-02-10T00:16:46.019Z,34.33
2023-02-10T00:19:12.849Z,32.00
2023-02-10T00:21:39.624Z,29.47
2023-02-10T00:24:06.604Z,31.13
2023-02-10T00:26:33.314Z,26.33
2023-02-10T00:29:00.337Z,35.83
2023-02-10T00:31:27.177Z,33.43
2023-02-10T00:33:54.186Z,29.50
2023-02-10T00:36:22.625Z,31.67
2023-02-10T00:38:49.433Z,31.90
2023-02-10T00:41:19.644Z,33.27
2023-02-10T00:43:46.522Z,35.73
2023-02-10T00:46:16.770Z,35.00
2023-02-10T00:48:44.745Z,33.57
2023-02-10T00:51:13.651Z,24.97
2023-02-10T00:53:41.125Z,31.90
2023-02-10T00:56:08.865Z,30.17
2023-02-10T00:58:35.963Z,26.90
2023-02-10T01:01:03.984Z,28.37
2023-02-10T01:03:30.724Z,31.13
2023-02-10T01:05:57.710Z,26.93
2023-02-10T01:08:24.474Z,34.83
2023-02-10T01:10:59.506Z,31.63
2023-02-10T01:13:26.430Z,31.17
2023-02-10T01:15:53.122Z,34.23
2023-02-10T01:18:19.836Z,35.27
2023-02-10T01:20:46.559Z,26.27
2023-02-10T01:23:13.331Z,35.63
2023-02-10T01:25:40.341Z,41.20
2023-02-10T01:28:07.631Z,32.80
2023-02-10T01:30:35.347Z,35.77
2023-02-10T01:33:02.267Z,39.53
2023-02-10T01:35:29.024Z,32.47
2023-02-10T01:37:56.034Z,36.87
2023-02-10T01:40:26.553Z,33.60
2023-02-10T01:42:53.440Z,34.53
2023-02-10T01:45:32.565Z,39.83
2023-02-10T01:48:00.861Z,31.90
2023-02-10T01:50:38.094Z,36.77
2023-02-10T01:53:07.011Z,27.47
2023-02-10T01:55:36.310Z,31.70
2023-02-10T01:58:08.715Z,38.17
2023-02-10T02:00:35.749Z,39.63
2023-02-10T02:03:04.807Z,36.80
2023-02-10T02:05:36.960Z,31.50
2023-02-10T02:08:21.768Z,35.30
2023-02-10T02:11:11.122Z,31.90
2023-02-10T02:13:57.440Z,33.30
2023-02-10T02:16:44.486Z,36.37
2023-02-10T02:19:49.144Z,31.77
2023-02-10T02:22:41.473Z,29.73
2023-02-10T02:26:11.313Z,31.63
2023-02-10T02:29:10.088Z,27.53
2023-02-10T02:32:05.561Z,33.23
2023-02-10T02:34:44.879Z,32.20
2023-02-10T02:37:21.904Z,33.37
2023-02-10T02:39:52.646Z,36.63
2023-02-10T02:42:33.222Z,33.83
2023-02-10T02:45:40.903Z,36.37
2023-02-10T02:48:45.639Z,28.60
2023-02-10T02:51:43.034Z,28.50
2023-02-10T02:54:47.953Z,36.77
2023-02-10T02:57:37.636Z,37.07
2023-02-10T03:00:16.465Z,36.50
2023-02-10T03:02:46.339Z,36.83
2023-02-10T03:05:24.879Z,33.73
2023-02-10T03:07:51.675Z,40.10
2023-02-10T03:10:18.592Z,36.20
2023-02-10T03:12:45.430Z,37.37
2023-02-10T03:15:12.269Z,38.23
2023-02-10T03:17:40.858Z,36.57
2023-02-10T03:20:08.436Z,38.70
2023-02-10T03:22:35.195Z,36.40
2023-02-10T03:25:02.027Z,32.03
2023-02-10T03:27:28.727Z,35.50
2023-02-10T03:29:55.437Z,37.77
2023-02-10T03:32:22.163Z,43.43
2023-02-10T03:34:49.033Z,33.87
2023-02-10T03:37:16.036Z,42.40
2023-02-10T03:39:42.871Z,38.77
2023-02-10T03:42:10.728Z,38.40
2023-02-10T03:44:37.424Z,32.47
2023-02-10T03:47:05.123Z,37.73
2023-02-10T03:49:31.903Z,35.10
2023-02-10T03:51:58.679Z,35.10
2023-02-10T03:54:25.395Z,43.53
2023-02-10T03:56:52.111Z,36.53
2023-02-10T03:59:19.921Z,39.17
2023-02-10T04:01:47.004Z,41.90
2023-02-10T04:04:13.778Z,41.87
2023-02-10T04:06:40.556Z,39.83
2023-02-10T04:09:07.310Z,36.80
2023-02-10T04:11:34.056Z,46.40
2023-02-10T04:14:00.765Z,34.53
2023-02-10T04:16:28.778Z,42.40
2023-02-10T04:18:55.802Z,36.07
2023-02-10T04:21:22.561Z,34.87
2023-02-10T04:23:49.312Z,38.93
2023-02-10T04:26:16.051Z,39.67
2023-02-10T04:28:44.446Z,45.77
2023-02-10T04:31:11.414Z,35.40
2023-02-10T04:33:38.627Z,45.77
2023-02-10T04:36:06.312Z,42.57
2023-02-10T04:38:33.114Z,41.07
2023-02-10T04:40:59.896Z,41.43
2023-02-10T04:43:26.607Z,46.13
2023-02-10T04:45:53.421Z,41.13
2023-02-10T04:48:21.987Z,38.73
2023-02-10T04:50:48.783Z,45.53
2023-02-10T04:53:15.979Z,38.77
2023-02-10T04:55:42.719Z,43.40
2023-02-10T04:58:09.449Z,37.77
2023-02-10T05:00:36.195Z,35.13
2023-02-10T05:03:03.005Z,40.43
2023-02-10T05:05:29.813Z,43.57
2023-02-10T05:07:56.554Z,45.00
2023-02-10T05:10:23.514Z,41.50
2023-02-10T05:12:50.391Z,38.70
2023-02-10T05:15:17.099Z,35.27
2023-02-10T05:17:43.971Z,43.73
2023-02-10T05:20:11.489Z,41.67
2023-02-10T05:22:40.181Z,41.70
2023-02-10T05:25:08.473Z,40.93
2023-02-10T05:27:35.989Z,41.20
2023-02-10T05:30:04.987Z,37.23
2023-02-10T05:32:31.722Z,32.67
2023-02-10T05:34:58.451Z,37.40
2023-02-10T05:37:25.261Z,41.60
2023-02-10T05:39:51.974Z,40.67
2023-02-10T05:42:18.680Z,41.57
2023-02-10T05:44:45.451Z,43.03
2023-02-10T05:47:12.207Z,36.87
2023-02-10T05:49:38.969Z,34.23
2023-02-10T05:52:05.827Z,42.50
2023-02-10T05:54:32.765Z,43.70
2023-02-10T05:56:59.739Z,43.13
2023-02-10T05:59:26.669Z,41.13
2023-02-10T06:01:53.567Z,42.13
2023-02-10T06:04:20.370Z,39.50
2023-02-10T06:06:47.137Z,32.43
2023-02-10T06:09:13.860Z,40.40
2023-02-10T06:11:40.588Z,44.47
2023-02-10T06:14:07.349Z,35.53
2023-02-10T06:16:34.109Z,40.17
2023-02-10T06:19:00.929Z,35.80
2023-02-10T06:21:27.677Z,42.27
2023-02-10T06:23:54.486Z,34.80
2023-02-10T06:26:21.299Z,43.50
2023-02-10T06:28:48.037Z,37.87
2023-02-10T06:31:15.110Z,42.03
2023-02-10T06:33:41.910Z,42.33
2023-02-10T06:36:09.871Z,41.27
2023-02-10T06:38:38.153Z,48.83
2023-02-10T06:41:06.456Z,51.37
2023-02-10T06:43:33.589Z,42.40
2023-02-10T06:46:00.737Z,36.23
2023-02-10T06:48:27.638Z,35.90
2023-02-10T06:50:54.366Z,36.97
2023-02-10T06:53:21.658Z,46.20
2023-02-10T06:55:48.926Z,40.93
2023-02-10T06:58:16.733Z,48.20
2023-02-10T07:00:43.948Z,41.00
2023-02-10T07:03:15.382Z,40.90
2023-02-10T07:05:42.347Z,39.07
2023-02-10T07:08:09.713Z,46.40
2023-02-10T07:10:36.539Z,42.23
2023-02-10T07:13:03.598Z,38.80
2023-02-10T07:15:30.493Z,43.20
2023-02-10T07:17:57.234Z,47.53
2023-02-10T07:20:24.761Z,41.10
2023-02-10T07:22:52.532Z,40.40
2023-02-10T07:25:19.813Z,43.53
2023-02-10T07:27:46.697Z,54.73
2023-02-10T07:30:14.129Z,41.97
2023-02-10T07:32:42.713Z,38.47
2023-02-10T07:35:10.255Z,45.90
2023-02-10T07:37:38.346Z,44.37
2023-02-10T07:40:06.494Z,41.83
2023-02-10T07:42:33.284Z,44.60
2023-02-10T07:45:00.110Z,35.97
2023-02-10T07:47:26.900Z,35.03
2023-02-10T07:49:54.947Z,37.47
2023-02-10T07:52:23.098Z,35.97
2023-02-10T07:54:50.697Z,43.97
2023-02-10T07:57:19.421Z,40.50
2023-02-10T07:59:46.147Z,41.97
2023-02-10T08:02:13.768Z,43.67
2023-02-10T08:04:40.572Z,42.50
2023-02-10T08:07:07.284Z,37.23
2023-02-10T08:09:34.123Z,44.97
2023-02-10T08:12:00.875Z,41.53
2023-02-10T08:14:27.701Z,35.97
2023-02-10T08:16:54.537Z,38.93
2023-02-10T08:19:21.313Z,45.57
2023-02-10T08:21:48.078Z,43.77
2023-02-10T08:24:15.021Z,42.73
2023-02-10T08:26:42.910Z,52.13
2023-02-10T08:29:10.284Z,53.10
2023-02-10T08:31:37.143Z,45.50
2023-02-10T08:34:04.367Z,44.17
2023-02-10T08:36:31.882Z,42.97
2023-02-10T08:38:58.821Z,48.90
2023-02-10T08:41:26.512Z,46.23
2023-02-10T08:43:53.335Z,46.57
2023-02-10T08:46:20.131Z,46.57
2023-02-10T08:48:46.956Z,40.53
2023-02-10T08:51:16.044Z,40.67
2023-02-10T08:53:42.941Z,44.30
2023-02-10T08:56:14.308Z,40.63
2023-02-10T08:58:41.219Z,44.90
2023-02-10T09:01:24.670Z,48.50
2023-02-10T09:03:52.848Z,44.73
2023-02-10T09:06:24.677Z,43.87
2023-02-10T09:08:53.377Z,45.40
2023-02-10T09:11:24.230Z,47.30
2023-02-10T09:13:52.727Z,46.53
2023-02-10T09:16:20.972Z,38.73
2023-02-10T09:18:47.792Z,40.17
2023-02-10T09:21:14.752Z,43.57
2023-02-10T09:23:42.955Z,40.67
2023-02-10T09:26:10.157Z,40.33
2023-02-10T09:28:37.168Z,43.83
2023-02-10T09:31:12.986Z,41.90
2023-02-10T09:33:40.369Z,45.73
2023-02-10T09:36:11.067Z,43.07
2023-02-10T09:38:39.069Z,40.40
2023-02-10T09:41:36.617Z,37.20
2023-02-10T09:44:23.255Z,41.33
2023-02-10T09:47:00.013Z,42.77
2023-02-10T09:49:48.365Z,41.20
2023-02-10T09:52:23.849Z,41.23
2023-02-10T09:54:53.177Z,42.70
2023-02-10T09:57:31.411Z,35.43
2023-02-10T10:00:00.726Z,39.03
2023-02-10T10:02:39.729Z,38.57
2023-02-10T10:05:24.717Z,41.90
2023-02-10T10:07:54.680Z,34.37
2023-02-10T10:10:28.005Z,36.40
2023-02-10T10:12:55.756Z,42.60
2023-02-10T10:15:31.241Z,42.80
2023-02-10T10:18:14.766Z,45.63
2023-02-10T10:21:06.052Z,40.93
2023-02-10T10:24:07.892Z,35.50
2023-02-10T10:26:58.258Z,34.50
2023-02-10T10:29:46.021Z,39.33
2023-02-10T10:32:19.124Z,39.17
2023-02-10T10:34:57.076Z,37.07
2023-02-10T10:37:26.381Z,35.10
2023-02-10T10:40:00.748Z,44.83
2023-02-10T10:42:50.886Z,45.10
2023-02-10T10:45:25.739Z,40.53
2023-02-10T10:48:16.669Z,35.20
2023-02-10T10:50:44.119Z,35.07
2023-02-10T10:53:31.252Z,41.60
2023-02-10T10:56:02.356Z,35.10
2023-02-10T10:58:41.295Z,34.60
2023-02-10T11:01:08.144Z,40.77
2023-02-10T11:03:35.351Z,33.20
2023-02-10T11:06:14.449Z,36.20
2023-02-10T11:08:55.573Z,35.80
2023-02-10T11:11:40.896Z,35.27
2023-02-10T11:14:26.417Z,34.27
2023-02-10T11:16:58.482Z,37.33
2023-02-10T11:19:32.978Z,41.80
2023-02-10T11:22:16.878Z,37.57
2023-02-10T11:25:01.749Z,32.43
2023-02-10T11:27:29.142Z,40.93
2023-02-10T11:29:59.253Z,31.43
2023-02-10T11:32:37.215Z,30.50
2023-02-10T11:35:15.784Z,34.03
2023-02-10T11:37:44.435Z,29.23
2023-02-10T11:40:23.311Z,33.47
2023-02-10T11:42:53.731Z,36.87
2023-02-10T11:45:32.676Z,42.90
2023-02-10T11:48:05.684Z,34.73
2023-02-10T11:50:36.295Z,39.73
2023-02-10T11:53:03.151Z,36.97
2023-02-10T11:56:02.768Z,36.57
2023-02-10T11:59:00.537Z,31.20
2023-02-10T12:01:41.931Z,32.80
2023-02-10T12:04:39.670Z,34.20
2023-02-10T12:07:21.392Z,32.80
2023-02-10T12:09:56.548Z,37.90
2023-02-10T12:12:52.574Z,37.17
2023-02-10T12:16:01.644Z,37.83
2023-02-10T12:18:59.036Z,34.77
2023-02-10T12:21:50.609Z,35.80
2023-02-10T12:24:34.934Z,32.23
2023-02-10T12:27:17.479Z,34.73
2023-02-10T12:30:03.470Z,38.28
2023-02-10T12:33:34.972Z,29.17
2023-02-10T12:36:18.048Z,34.83
2023-02-10T12:39:23.899Z,31.90
2023-02-10T12:42:12.698Z,34.77
2023-02-10T12:45:26.149Z,28.50
2023-02-10T12:48:21.888Z,34.53
2023-02-10T12:51:27.474Z,31.10
2023-02-10T12:54:07.930Z,34.50
2023-02-10T12:56:46.364Z,35.37
2023-02-10T12:59:22.030Z,33.03
2023-02-10T13:02:06.073Z,32.70
2023-02-10T13:04:46.201Z,30.97
2023-02-10T13:07:48.925Z,26.73
2023-02-10T13:10:41.400Z,31.37
2023-02-10T13:13:30.864Z,30.27
2023-02-10T13:16:04.524Z,29.33
2023-02-10T13:18:36.863Z,32.70
2023-02-10T13:21:19.972Z,28.43
2023-02-10T13:23:56.591Z,35.17
2023-02-10T13:26:56.179Z,30.83
2023-02-10T13:30:07.750Z,37.07
2023-02-10T13:33:12.689Z,38.03
2023-02-10T13:35:43.794Z,31.63
2023-02-10T13:38:24.577Z,39.37
2023-02-10T13:41:16.146Z,32.70
2023-02-10T13:43:46.039Z,42.37
2023-02-10T13:46:31.602Z,36.83
2023-02-10T13:49:02.048Z,34.97
2023-02-10T13:51:38.634Z,28.47
2023-02-10T13:54:06.150Z,33.80
2023-02-10T13:56:35.216Z,28.57
2023-02-10T13:59:27.673Z,27.00
2023-02-10T14:02:22.776Z,28.40
2023-02-10T14:04:55.265Z,24.00
2023-02-10T14:07:32.498Z,26.47
2023-02-10T14:10:20.334Z,25.17
2023-02-10T14:13:01.416Z,22.97
2023-02-10T14:15:40.788Z,29.57
2023-02-10T14:18:26.692Z,23.03
2023-02-10T14:21:01.910Z,17.70
2023-02-10T14:23:33.018Z,15.50
2023-02-10T14:26:05.199Z,15.30
2023-02-10T14:28:39.452Z,19.33
2023-02-10T14:31:20.792Z,25.20
2023-02-10T14:34:05.100Z,20.30
2023-02-10T14:36:32.548Z,16.07
2023-02-10T14:39:05.782Z,16.57
2023-02-10T14:41:34.092Z,20.03
2023-02-10T14:44:00.823Z,20.43
2023-02-10T14:46:31.887Z,19.57
2023-02-10T14:49:10.144Z,19.93
2023-02-10T14:51:45.484Z,17.30
2023-02-10T14:54:24.428Z,18.17
2023-02-10T14:57:14.356Z,17.53
2023-02-10T14:59:41.043Z,14.87
2023-02-10T15:02:26.759Z,17.40
2023-02-10T15:05:00.345Z,14.60
2023-02-10T15:07:38.633Z,16.07
2023-02-10T15:10:33.640Z,18.73
2023-02-10T15:13:01.551Z,22.73
2023-02-10T15:15:36.774Z,23.93
2023-02-10T15:18:29.338Z,20.23
2023-02-10T15:21:00.898Z,24.77
2023-02-10T15:23:33.147Z,24.10
2023-02-10T15:26:21.129Z,24.00
2023-02-10T15:29:10.235Z,26.77
2023-02-10T15:31:37.475Z,25.97
2023-02-10T15:34:29.618Z,26.10
2023-02-10T15:37:05.720Z,22.57
2023-02-10T15:39:40.092Z,26.17
2023-02-10T15:42:12.966Z,26.40
2023-02-10T15:44:42.329Z,26.03
2023-02-10T15:47:24.072Z,25.23
2023-02-10T15:49:58.437Z,27.53
2023-02-10T15:52:39.001Z,25.33
2023-02-10T15:55:33.339Z,25.27
2023-02-10T15:58:00.064Z,26.90
2023-02-10T16:00:33.440Z,22.93
2023-02-10T16:03:01.822Z,26.77
2023-02-10T16:05:29.745Z,22.87
2023-02-10T16:08:24.726Z,26.93
2023-02-10T16:10:51.754Z,25.53
2023-02-10T16:13:18.668Z,26.57
2023-02-10T16:15:51.098Z,26.60
2023-02-10T16:18:23.022Z,25.43
2023-02-10T16:20:51.525Z,29.57
2023-02-10T16:23:20.664Z,26.67
2023-02-10T16:25:50.110Z,27.10
2023-02-10T16:28:19.389Z,31.10
2023-02-10T16:30:47.652Z,28.07
2023-02-10T16:33:15.889Z,26.57
2023-02-10T16:35:43.168Z,25.17
2023-02-10T16:38:17.680Z,23.27
2023-02-10T16:40:44.821Z,28.03
2023-02-10T16:43:11.560Z,23.43
2023-02-10T16:45:38.556Z,25.13
2023-02-10T16:48:05.848Z,31.27
2023-02-10T16:50:40.475Z,26.80
2023-02-10T16:53:09.686Z,24.90
2023-02-10T16:55:39.962Z,27.27
2023-02-10T16:58:12.886Z,31.20
2023-02-10T17:00:39.658Z,26.83
2023-02-10T17:03:07.188Z,30.20
2023-02-10T17:05:35.004Z,30.30
2023-02-10T17:08:01.835Z,30.70
2023-02-10T17:10:30.849Z,26.63
2023-02-10T17:12:57.582Z,29.10
2023-02-10T17:15:24.496Z,31.87
2023-02-10T17:17:51.529Z,29.23
2023-02-10T17:20:27.353Z,31.17
2023-02-10T17:23:00.320Z,30.10
2023-02-10T17:25:27.490Z,30.27
2023-02-10T17:27:54.453Z,32.03
2023-02-10T17:30:24.498Z,30.00
2023-02-10T17:32:51.928Z,27.17
2023-02-10T17:35:22.603Z,34.97
2023-02-10T17:37:54.306Z,32.20
2023-02-10T17:40:28.559Z,35.65
2023-02-10T17:42:55.284Z,37.43
2023-02-10T17:45:22.044Z,32.63
2023-02-10T17:47:48.874Z,35.57
2023-02-10T17:50:16.933Z,32.33
2023-02-10T17:52:43.668Z,31.43
2023-02-10T17:55:21.715Z,34.00
2023-02-10T17:57:49.467Z,32.67
2023-02-10T18:00:17.672Z,30.37
2023-02-10T18:02:44.410Z,31.93
2023-02-10T18:05:11.654Z,28.40
2023-02-10T18:07:38.607Z,37.47
2023-02-10T18:10:06.990Z,32.43
2023-02-10T18:12:34.103Z,35.73
2023-02-10T18:15:00.844Z,29.53
2023-02-10T18:17:27.653Z,34.53
2023-02-10T18:19:54.480Z,30.83
2023-02-10T18:22:21.419Z,30.03
2023-02-10T18:24:48.170Z,28.00
2023-02-10T18:27:14.956Z,32.53
2023-02-10T18:29:44.429Z,33.30
2023-02-10T18:32:11.244Z,35.93
2023-02-10T18:34:38.789Z,32.10
2023-02-10T18:37:05.670Z,29.40
2023-02-10T18:39:33.867Z,32.80
2023-02-10T18:42:00.986Z,30.10
2023-02-10T18:44:27.871Z,41.10
2023-02-10T18:46:54.608Z,34.10
2023-02-10T18:49:21.467Z,28.93
2023-02-10T18:51:53.547Z,32.00
2023-02-10T18:54:22.819Z,35.40
2023-02-10T18:56:50.110Z,31.77
2023-02-10T18:59:16.849Z,32.30
2023-02-10T19:01:43.724Z,41.37
2023-02-10T19:04:10.517Z,36.73
2023-02-10T19:06:38.105Z,34.10
2023-02-10T19:09:04.870Z,34.03
2023-02-10T19:11:31.609Z,29.37
2023-02-10T19:13:58.407Z,32.30
2023-02-10T19:16:25.466Z,32.67
2023-02-10T19:18:52.240Z,31.70
2023-02-10T19:21:20.510Z,30.63
2023-02-10T19:23:47.571Z,35.27
2023-02-10T19:26:14.388Z,39.13
2023-02-10T19:28:42.532Z,32.00
2023-02-10T19:31:12.392Z,34.53
2023-02-10T19:33:39.968Z,36.43
2023-02-10T19:36:11.739Z,32.53
2023-02-10T19:38:38.641Z,32.93
2023-02-10T19:41:16.618Z,32.47
2023-02-10T19:43:45.077Z,39.23
2023-02-10T19:46:13.012Z,38.93
2023-02-10T19:48:39.962Z,30.03
2023-02-10T19:51:14.347Z,34.93
2023-02-10T19:53:41.865Z,36.80
2023-02-10T19:56:09.988Z,36.03
2023-02-10T19:58:38.128Z,35.53
2023-02-10T20:01:16.266Z,39.90
2023-02-10T20:03:48.998Z,36.73
2023-02-10T20:06:21.864Z,43.60
2023-02-10T20:08:49.390Z,33.63
2023-02-10T20:11:18.375Z,34.97
2023-02-10T20:13:46.389Z,36.33
2023-02-10T20:16:14.205Z,35.83
2023-02-10T20:18:41.986Z,36.30
2023-02-10T20:21:10.121Z,36.27
2023-02-10T20:23:40.795Z,33.83
2023-02-10T20:26:12.041Z,33.53
2023-02-10T20:28:38.931Z,35.33
2023-02-10T20:31:06.566Z,30.40
2023-02-10T20:33:33.435Z,32.20
2023-02-10T20:36:03.211Z,38.13
2023-02-10T20:38:30.074Z,35.50
2023-02-10T20:41:08.786Z,30.60
2023-02-10T20:43:37.273Z,36.30
2023-02-10T20:46:07.140Z,32.40
2023-02-10T20:48:35.095Z,36.03
2023-02-10T20:51:05.644Z,35.53
2023-02-10T20:53:32.904Z,32.03
2023-02-10T20:56:00.057Z,37.27
2023-02-10T20:58:30.426Z,42.07
2023-02-10T21:01:00.164Z,43.87
2023-02-10T21:03:28.064Z,44.47
2023-02-10T21:06:13.583Z,43.07
2023-02-10T21:08:42.583Z,36.33
2023-02-10T21:11:12.476Z,43.37
2023-02-10T21:13:39.790Z,43.30
2023-02-10T21:16:09.735Z,41.37
2023-02-10T21:18:37.062Z,38.40
2023-02-10T21:21:07.210Z,41.73
2023-02-10T21:23:35.114Z,37.17
2023-02-10T21:26:02.515Z,34.47
2023-02-10T21:28:30.324Z,33.07
2023-02-10T21:30:57.503Z,33.57
2023-02-10T21:33:24.861Z,29.30
2023-02-10T21:35:56.699Z,31.63
2023-02-10T21:38:24.666Z,29.63
2023-02-10T21:41:01.334Z,29.47
2023-02-10T21:43:28.023Z,33.27
2023-02-10T21:45:54.794Z,31.97
2023-02-10T21:48:21.581Z,30.30
2023-02-10T21:50:51.475Z,32.53
2023-02-10T21:53:18.550Z,30.50
2023-02-10T21:55:45.256Z,29.50
2023-02-10T21:58:12.097Z,32.07
2023-02-10T22:00:38.951Z,36.50
2023-02-10T22:03:05.839Z,33.53
2023-02-10T22:05:32.666Z,36.37
2023-02-10T22:07:59.476Z,35.37
2023-02-10T22:10:26.225Z,36.40
2023-02-10T22:12:52.963Z,34.97
2023-02-10T22:15:19.929Z,36.17
2023-02-10T22:17:46.713Z,32.97
2023-02-10T22:20:13.436Z,38.63
2023-02-10T22:22:40.219Z,37.23
2023-02-10T22:25:07.144Z,36.63
2023-02-10T22:27:34.519Z,32.07
2023-02-10T22:30:01.375Z,29.40
2023-02-10T22:32:28.174Z,31.50
2023-02-10T22:34:54.924Z,31.90
2023-02-10T22:37:21.677Z,31.63
2023-02-10T22:39:48.623Z,34.50
2023-02-10T22:42:15.733Z,31.27
2023-02-10T22:44:42.799Z,35.10
2023-02-10T22:47:09.694Z,32.63
2023-02-10T22:49:37.709Z,32.67
2023-02-10T22:52:05.254Z,33.00
2023-02-10T22:54:32.041Z,33.23
2023-02-10T22:56:58.756Z,33.23
2023-02-10T22:59:25.910Z,32.33
2023-02-10T23:01:55.947Z,37.13
2023-02-10T23:04:24.219Z,42.73
2023-02-10T23:06:51.622Z,40.03
2023-02-10T23:09:18.438Z,43.50
2023-02-10T23:11:51.755Z,47.67
2023-02-10T23:14:19.797Z,49.20
2023-02-10T23:16:52.900Z,51.30
2023-02-10T23:19:29.051Z,53.27
2023-02-10T23:21:57.268Z,41.13
2023-02-10T23:24:24.008Z,46.07
2023-02-10T23:26:50.761Z,45.03
2023-02-10T23:29:18.244Z,48.53
2023-02-10T23:31:46.193Z,46.63
2023-02-10T23:34:13.804Z,40.80
2023-02-10T23:36:41.450Z,44.27
2023-02-10T23:39:08.496Z,42.50
2023-02-10T23:41:37.562Z,36.17
2023-02-10T23:44:06.755Z,33.13
2023-02-10T23:46:34.593Z,33.63
2023-02-10T23:49:01.362Z,36.70
2023-02-10T23:51:28.461Z,33.53
2023-02-10T23:53:55.504Z,38.47
2023-02-10T23:56:24.126Z,39.60
2023-02-10T23:58:52.172Z,36.87
